Time;durP1;ratioP1;P1;durP2;ratioP2;P2;SDS_P1;SDS_P2;PMS_P1;PMS_P2;Temp;Humidity;BMP_temperature;BMP_pressure;BME280_temperature;BME280_humidity;BME280_pressure;Samples;Min_cycle;Max_cycle;Signal;HPM_P1;HPM_P2
2022/12/14 00:01:25;;;;;;;57.83;29.90;;;-3.60;99.90;;;;;;5006192;28;20751;-66
2022/12/14 00:03:53;;;;;;;60.20;31.05;;;-3.50;99.90;;;;;;5006383;28;20357;-67
2022/12/14 00:06:22;;;;;;;60.40;29.83;;;-3.50;99.90;;;;;;5014789;28;20044;-67
2022/12/14 00:08:51;;;;;;;51.53;27.10;;;-3.60;99.90;;;;;;5008708;28;20570;-67
2022/12/14 00:11:18;;;;;;;56.85;28.70;;;-3.50;99.90;;;;;;5002960;28;20258;-66
2022/12/14 00:13:45;;;;;;;61.13;29.15;;;-3.50;99.90;;;;;;5009815;28;20052;-67
2022/12/14 00:16:16;;;;;;;63.70;29.58;;;-3.60;99.90;;;;;;5003523;28;20286;-67
2022/12/14 00:18:48;;;;;;;64.28;30.80;;;-3.50;99.90;;;;;;5008138;28;20040;-66
2022/12/14 00:21:15;;;;;;;55.78;29.00;;;-3.50;99.90;;;;;;5007778;28;20045;-66
2022/12/14 00:23:44;;;;;;;71.28;34.28;;;-3.50;99.90;;;;;;5004260;28;20045;-67
2022/12/14 00:26:22;;;;;;;62.22;32.67;;;-3.50;99.90;;;;;;5005005;28;20659;-66
2022/12/14 00:28:51;;;;;;;62.53;30.25;;;-3.40;99.90;;;;;;5006431;28;20045;-67
2022/12/14 00:31:18;;;;;;;57.47;30.45;;;-3.40;99.90;;;;;;5010891;28;20567;-66
2022/12/14 00:33:45;;;;;;;50.45;29.52;;;-3.40;99.90;;;;;;5003481;28;20040;-66
2022/12/14 00:36:12;;;;;;;57.10;29.70;;;-3.40;99.90;;;;;;5006619;28;20116;-67
2022/12/14 00:38:40;;;;;;;44.15;26.70;;;-3.30;99.90;;;;;;5009359;28;20041;-66
2022/12/14 00:41:08;;;;;;;52.70;28.88;;;-3.30;99.90;;;;;;5004414;28;20063;-67
2022/12/14 00:43:35;;;;;;;54.13;28.65;;;-3.20;99.90;;;;;;5012589;28;20049;-67
2022/12/14 00:46:04;;;;;;;56.45;30.02;;;-3.20;99.90;;;;;;5002318;28;20466;-66
2022/12/14 00:48:31;;;;;;;52.55;27.08;;;-3.20;99.90;;;;;;5004066;28;20100;-65
2022/12/14 00:50:59;;;;;;;62.83;30.67;;;-3.20;99.90;;;;;;5015509;28;20049;-66
2022/12/14 00:53:26;;;;;;;56.92;29.60;;;-3.10;99.90;;;;;;5006899;28;20123;-67
2022/12/14 00:55:53;;;;;;;57.97;25.95;;;-3.10;99.90;;;;;;5005003;28;20573;-66
2022/12/14 00:58:22;;;;;;;49.25;27.58;;;-3.10;99.90;;;;;;5010415;28;20045;-66
2022/12/14 01:01:07;;;;;;;60.58;31.40;;;-3.10;99.90;;;;;;5015861;28;20541;-67
2022/12/14 01:03:34;;;;;;;56.97;30.80;;;-3.10;99.90;;;;;;5016637;28;20176;-67
2022/12/14 01:06:01;;;;;;;51.25;29.25;;;-3.10;99.90;;;;;;5010764;28;20121;-67
2022/12/14 01:08:34;;;;;;;56.90;29.05;;;-3.10;99.90;;;;;;5012653;28;20049;-67
2022/12/14 01:11:09;;;;;;;57.85;29.83;;;-3.10;99.90;;;;;;5006218;28;20122;-67
2022/12/14 01:13:36;;;;;;;56.22;28.55;;;-3.10;99.90;;;;;;5009459;28;20608;-65
2022/12/14 01:16:10;;;;;;;60.65;29.92;;;-3.10;99.90;;;;;;5001337;28;20073;-66
2022/12/14 01:18:38;;;;;;;63.40;29.70;;;-3.10;99.90;;;;;;5011884;28;20973;-66
2022/12/14 01:21:19;;;;;;;59.40;27.77;;;-3.10;99.90;;;;;;5009513;28;20155;-66
2022/12/14 01:23:47;;;;;;;60.28;32.67;;;-3.10;99.90;;;;;;5007015;28;20215;-66
2022/12/14 01:26:16;;;;;;;56.78;29.25;;;-3.10;99.90;;;;;;5008308;28;20656;-66
2022/12/14 01:28:44;;;;;;;58.55;30.27;;;-3.10;99.90;;;;;;5024005;28;20284;-67
2022/12/14 01:31:17;;;;;;;58.10;29.63;;;-3.10;99.90;;;;;;5008100;28;20392;-67
2022/12/14 01:33:44;;;;;;;62.03;31.73;;;-3.10;99.90;;;;;;5010133;28;20045;-67
2022/12/14 01:36:16;;;;;;;62.03;31.50;;;-3.00;99.90;;;;;;5012582;28;20472;-67
2022/12/14 01:38:43;;;;;;;63.10;31.70;;;-3.00;99.90;;;;;;5011741;28;20095;-66
2022/12/14 01:41:53;;;;;;;65.70;31.17;;;-3.00;99.90;;;;;;5009999;28;20635;-67
2022/12/14 01:44:20;;;;;;;70.65;31.75;;;-3.00;99.90;;;;;;4996464;28;20056;-67
2022/12/14 01:47:05;;;;;;;;;;;-3.00;99.90;;;;;;5013345;28;20170;-67
2022/12/14 01:50:04;;;;;;;62.60;31.00;;;-3.00;99.90;;;;;;5010427;28;20294;-67
2022/12/14 01:52:40;;;;;;;65.70;33.22;;;-3.00;99.90;;;;;;4995257;28;20148;-66
2022/12/14 01:55:09;;;;;;;67.38;32.25;;;-3.00;99.90;;;;;;4999897;28;20049;-66
2022/12/14 01:57:47;;;;;;;65.35;32.80;;;-3.00;99.90;;;;;;5008537;28;20423;-67
2022/12/14 02:00:15;;;;;;;62.20;29.95;;;-3.00;99.90;;;;;;5007181;28;20063;-67
2022/12/14 02:02:54;;;;;;;72.38;34.97;;;-3.00;99.90;;;;;;5006518;28;20286;-67
2022/12/14 02:05:23;;;;;;;70.72;34.17;;;-3.00;99.90;;;;;;5006736;28;20332;-66
2022/12/14 02:07:52;;;;;;;71.63;35.60;;;-3.00;99.90;;;;;;5008817;28;20037;-67
2022/12/14 02:10:21;;;;;;;66.13;32.60;;;-3.00;99.90;;;;;;5008112;28;20586;-67
2022/12/14 02:12:54;;;;;;;60.70;31.23;;;-3.00;99.90;;;;;;5023366;28;20067;-66
2022/12/14 02:15:21;;;;;;;66.97;33.03;;;-3.00;99.90;;;;;;5011348;28;20424;-67
2022/12/14 02:17:48;;;;;;;66.20;33.80;;;-3.00;99.90;;;;;;5009349;28;20072;-66
2022/12/14 02:20:16;;;;;;;72.22;32.92;;;-3.00;99.90;;;;;;5009547;28;20140;-66
2022/12/14 02:23:21;;;;;;;60.05;33.25;;;-3.00;99.90;;;;;;5003790;28;20451;-66
2022/12/14 02:26:00;;;;;;;66.88;34.97;;;-3.00;99.90;;;;;;5004680;28;20049;-66
2022/12/14 02:29:04;;;;;;;66.55;32.50;;;-3.00;99.90;;;;;;5003462;28;20064;-66
2022/12/14 02:31:53;;;;;;;66.38;32.30;;;-3.00;99.90;;;;;;5004001;28;20086;-66
2022/12/14 02:34:32;;;;;;;65.07;32.28;;;-3.00;99.90;;;;;;5005868;28;20386;-66
2022/12/14 02:37:14;;;;;;;57.20;29.00;;;-3.00;99.90;;;;;;5006593;28;20041;-66
2022/12/14 02:39:52;;;;;;;62.85;32.13;;;-3.00;99.90;;;;;;5006934;28;20048;-67
2022/12/14 02:42:31;;;;;;;58.65;30.17;;;-3.00;99.90;;;;;;5006945;28;20041;-66
2022/12/14 02:45:05;;;;;;;66.30;34.55;;;-3.00;99.90;;;;;;5005749;28;20049;-66
2022/12/14 02:48:06;;;;;;;59.58;32.30;;;-2.90;99.90;;;;;;5006415;28;20045;-66
2022/12/14 02:50:38;;;;;;;61.17;32.67;;;-2.90;99.90;;;;;;4994676;28;20081;-66
2022/12/14 02:53:27;;;;;;;72.32;33.35;;;-2.90;99.90;;;;;;5003527;28;20053;-65
2022/12/14 02:56:00;;;;;;;60.78;31.23;;;-2.90;99.90;;;;;;5009347;28;20132;-66
2022/12/14 02:58:49;;;;;;;65.25;34.83;;;-2.90;99.90;;;;;;5008732;28;20049;-66
2022/12/14 03:01:22;;;;;;;61.55;31.23;;;-2.90;99.90;;;;;;5007402;28;20495;-66
2022/12/14 03:03:50;;;;;;;58.47;30.05;;;-2.90;99.90;;;;;;5007247;28;20041;-66
2022/12/14 03:06:26;;;;;;;63.10;30.25;;;-2.90;99.90;;;;;;5003380;28;20044;-67
2022/12/14 03:09:06;;;;;;;69.80;34.17;;;-2.90;99.90;;;;;;5004801;28;20044;-66
2022/12/14 03:11:50;;;;;;;69.70;34.17;;;-2.90;99.90;;;;;;5022639;28;20072;-67
2022/12/14 03:14:33;;;;;;;63.17;31.98;;;-2.80;99.90;;;;;;5011027;28;20048;-66
2022/12/14 03:17:06;;;;;;;62.40;33.15;;;-2.80;99.90;;;;;;5008650;28;20439;-66
2022/12/14 03:19:51;;;;;;;64.65;32.30;;;-2.70;99.90;;;;;;5009101;28;20042;-66
2022/12/14 03:22:46;;;;;;;63.40;30.67;;;-2.70;99.90;;;;;;5007565;28;20075;-66
2022/12/14 03:25:19;;;;;;;58.05;30.00;;;-2.70;99.90;;;;;;5007375;28;20349;-66
2022/12/14 03:28:19;;;;;;;56.22;31.00;;;-2.70;99.90;;;;;;5004751;28;20056;-66
2022/12/14 03:30:52;;;;;;;54.60;30.20;;;-2.60;99.90;;;;;;5004838;28;20069;-66
2022/12/14 03:33:29;;;;;;;65.38;33.15;;;-2.60;99.90;;;;;;5014292;28;20053;-66
2022/12/14 03:36:12;;;;;;;54.35;29.13;;;-2.60;99.90;;;;;;5005307;28;20337;-66
2022/12/14 03:38:42;;;;;;;53.60;27.60;;;-2.60;99.90;;;;;;5021948;28;20049;-66
2022/12/14 03:41:19;;;;;;;38.67;22.90;;;-2.50;99.90;;;;;;5008966;28;20065;-67
2022/12/14 03:44:23;;;;;;;58.55;31.00;;;-2.50;99.90;;;;;;5005660;28;20053;-67
2022/12/14 03:46:50;;;;;;;69.80;30.77;;;-2.40;99.90;;;;;;5006154;28;20045;-67
2022/12/14 03:49:16;;;;;;;;;;;-2.40;99.90;;;;;;5004777;28;20051;-67
2022/12/14 03:52:01;;;;;;;55.78;28.48;;;-2.40;99.90;;;;;;5013033;28;19974;-66
2022/12/14 03:54:45;;;;;;;55.97;29.98;;;-2.30;99.90;;;;;;5007226;28;20581;-67
2022/12/14 03:57:18;;;;;;;52.40;27.25;;;-2.30;99.90;;;;;;5006313;28;20491;-66
2022/12/14 04:00:08;;;;;;;50.05;29.60;;;-2.30;99.90;;;;;;5001801;28;20754;-67
2022/12/14 04:03:15;;;;;;;48.33;26.95;;;-2.30;99.90;;;;;;5006302;28;20446;-67
2022/12/14 04:05:48;;;;;;;51.95;27.65;;;-2.20;99.90;;;;;;4996993;28;20295;-66
2022/12/14 04:08:22;;;;;;;60.63;33.63;;;-2.20;99.90;;;;;;5013740;28;20369;-66
2022/12/14 04:19:35;;;;;;;64.68;31.70;;;-2.10;99.90;;;;;;5005990;28;20107;-67
2022/12/14 04:22:06;;;;;;;56.55;30.45;;;-2.20;99.90;;;;;;5008548;28;20373;-67
2022/12/14 04:27:36;;;;;;;59.33;30.07;;;-2.20;99.90;;;;;;5005922;28;20143;-66
2022/12/14 04:30:05;;;;;;;63.67;31.98;;;-2.20;99.90;;;;;;5003166;28;20126;-67
2022/12/14 04:32:43;;;;;;;76.55;35.47;;;-2.20;99.90;;;;;;5001679;28;20334;-67
2022/12/14 04:35:32;;;;;;;71.78;34.45;;;-2.20;99.90;;;;;;5007185;28;20278;-67
2022/12/14 04:38:14;;;;;;;71.07;35.55;;;-2.20;99.90;;;;;;5009882;28;20065;-67
2022/12/14 04:40:48;;;;;;;69.57;34.75;;;-2.30;99.90;;;;;;5009310;28;20258;-67
2022/12/14 04:43:28;;;;;;;66.38;35.53;;;-2.30;99.90;;;;;;5008630;28;20449;-66
2022/12/14 04:46:05;;;;;;;65.80;33.22;;;-2.30;99.90;;;;;;5008665;28;20253;-67
2022/12/14 04:48:56;;;;;;;60.50;29.20;;;-2.30;99.90;;;;;;5009092;28;20129;-67
2022/12/14 04:51:45;;;;;;;71.75;34.00;;;-2.30;99.90;;;;;;5009008;28;20249;-66
2022/12/14 04:54:22;;;;;;;58.80;31.40;;;-2.30;99.90;;;;;;5011670;28;20049;-66
2022/12/14 04:56:59;;;;;;;64.65;31.75;;;-2.40;99.90;;;;;;5008209;28;20053;-67
2022/12/14 04:59:26;;;;;;;;;;;-2.40;99.90;;;;;;5006972;28;20087;-67
2022/12/14 05:02:27;;;;;;;68.38;32.28;;;-2.40;99.90;;;;;;5004721;28;20213;-67
2022/12/14 05:05:09;;;;;;;70.95;35.03;;;-2.40;99.90;;;;;;5001347;28;20527;-67
2022/12/14 05:08:07;;;;;;;69.13;32.60;;;-2.40;99.90;;;;;;5007416;28;20136;-66
2022/12/14 05:10:43;;;;;;;53.30;25.58;;;-2.40;99.90;;;;;;5009673;28;20049;-66
2022/12/14 05:13:19;;;;;;;56.43;29.93;;;-2.30;99.90;;;;;;5009339;28;20581;-66
2022/12/14 05:15:52;;;;;;;70.15;34.50;;;-2.40;99.90;;;;;;5008219;28;20540;-67
2022/12/14 05:18:20;;;;;;;61.40;31.95;;;-2.30;99.90;;;;;;5004511;28;20595;-67
2022/12/14 05:20:48;;;;;;;72.45;35.90;;;-2.30;99.90;;;;;;5010759;28;20571;-67
2022/12/14 05:23:15;;;;;;;58.88;31.77;;;-2.30;99.90;;;;;;5007410;28;20061;-67
2022/12/14 05:25:43;;;;;;;76.18;35.35;;;-2.30;99.90;;;;;;5009780;28;20138;-67
2022/12/14 05:28:11;;;;;;;80.68;35.30;;;-2.20;99.90;;;;;;5003372;28;20079;-67
2022/12/14 05:30:38;;;;;;;69.93;33.10;;;-2.20;99.90;;;;;;5010299;28;20049;-67
2022/12/14 05:33:05;;;;;;;65.07;30.65;;;-2.20;99.90;;;;;;5004154;28;20088;-67
2022/12/14 05:35:31;;;;;;;71.32;35.70;;;-2.20;99.90;;;;;;5015039;28;20041;-67
2022/12/14 05:37:58;;;;;;;73.03;33.08;;;-2.20;99.90;;;;;;5009374;28;20041;-67
2022/12/14 05:40:25;;;;;;;70.00;33.65;;;-2.10;99.90;;;;;;5009133;28;20164;-67
2022/12/14 05:43:03;;;;;;;66.28;30.50;;;-2.10;99.90;;;;;;5009604;28;20048;-67
2022/12/14 05:45:30;;;;;;;69.80;35.17;;;-2.10;99.90;;;;;;5003905;28;20122;-67
2022/12/14 05:47:57;;;;;;;70.43;33.78;;;-2.00;99.90;;;;;;5006463;28;20374;-67
2022/12/14 05:50:24;;;;;;;69.22;34.92;;;-2.00;99.90;;;;;;5009909;28;20050;-67
2022/12/14 05:52:51;;;;;;;68.03;34.97;;;-2.00;99.90;;;;;;5008894;28;20575;-67
2022/12/14 05:55:18;;;;;;;66.60;31.60;;;-2.00;99.90;;;;;;5016810;28;20239;-67
2022/12/14 05:57:45;;;;;;;69.05;32.15;;;-2.00;99.90;;;;;;5000712;28;20182;-67
2022/12/14 06:00:12;;;;;;;63.40;33.30;;;-2.00;99.90;;;;;;5005705;28;20172;-67
2022/12/14 06:02:39;;;;;;;62.05;34.08;;;-1.90;99.90;;;;;;5006305;28;20037;-67
2022/12/14 06:05:06;;;;;;;75.25;36.28;;;-1.90;99.90;;;;;;5006838;28;20040;-68
2022/12/14 06:07:33;;;;;;;67.53;32.83;;;-1.90;99.90;;;;;;5006710;28;20077;-67
2022/12/14 06:09:59;;;;;;;;;;;-1.90;99.90;;;;;;5009920;28;20158;-68
2022/12/14 06:12:26;;;;;;;65.97;33.92;;;-1.80;99.90;;;;;;5004086;28;20441;-67
2022/12/14 06:14:53;;;;;;;65.43;34.22;;;-1.80;99.90;;;;;;5008354;28;20550;-67
2022/12/14 06:17:20;;;;;;;;;;;-1.80;99.90;;;;;;5001816;28;20132;-67
2022/12/14 06:19:46;;;;;;;59.42;31.55;;;-1.70;99.90;;;;;;5007075;28;19933;-67
2022/12/14 06:22:16;;;;;;;67.30;33.28;;;-1.70;99.90;;;;;;5015045;28;20049;-67
2022/12/14 06:24:43;;;;;;;68.78;33.88;;;-1.70;99.90;;;;;;5001383;28;20099;-67
2022/12/14 06:27:10;;;;;;;;;;;-1.60;99.90;;;;;;5007212;28;20033;-67
2022/12/14 06:29:36;;;;;;;;;;;-1.60;99.90;;;;;;5004671;28;19925;-72
2022/12/14 06:32:03;;;;;;;;;;;-1.60;99.90;;;;;;5011278;28;19925;-69
2022/12/14 06:34:30;;;;;;;;;;;-1.60;99.90;;;;;;5003087;28;19932;-70
2022/12/14 06:37:05;;;;;;;;;;;-1.50;99.90;;;;;;5004498;28;20471;-71
2022/12/14 06:39:31;;;;;;;;;;;-1.50;99.90;;;;;;5006998;28;20059;-68
2022/12/14 06:41:58;;;;;;;;;;;-1.40;99.90;;;;;;5004326;28;19932;-70
2022/12/14 06:44:25;;;;;;;;;;;-1.40;99.90;;;;;;5003216;28;19925;-68
2022/12/14 06:46:52;;;;;;;;;;;-1.30;99.90;;;;;;5005781;28;19925;-70
2022/12/14 06:49:18;;;;;;;;;;;-1.30;99.90;;;;;;5005102;28;19936;-70
2022/12/14 06:51:45;;;;;;;;;;;-1.20;99.90;;;;;;5003252;28;19924;-70
2022/12/14 06:54:12;;;;;;;;;;;-1.10;99.90;;;;;;5004217;28;21127;-70
2022/12/14 06:56:39;;;;;;;;;;;-1.10;99.90;;;;;;5005163;28;19928;-67
2022/12/14 06:59:07;;;;;;;;;;;-1.10;99.90;;;;;;5006308;28;20450;-70
2022/12/14 07:01:35;;;;;;;;;;;-1.00;99.90;;;;;;5003464;28;20046;-70
2022/12/14 07:04:01;;;;;;;;;;;-1.00;99.90;;;;;;4998121;28;20689;-70
2022/12/14 07:06:31;;;;;;;;;;;-1.00;99.90;;;;;;5002942;28;19987;-69
2022/12/14 07:08:58;;;;;;;;;;;-0.90;99.90;;;;;;5004575;28;19933;-69
2022/12/14 07:11:26;;;;;;;;;;;-0.90;99.90;;;;;;5003164;28;19925;-71
2022/12/14 07:13:53;;;;;;;;;;;-0.90;99.90;;;;;;5002761;28;19929;-70
2022/12/14 07:16:21;;;;;;;;;;;-0.90;99.90;;;;;;5005355;28;20019;-70
2022/12/14 07:18:48;;;;;;;;;;;-0.90;99.90;;;;;;5005940;28;19929;-70
2022/12/14 07:21:16;;;;;;;;;;;-0.90;99.90;;;;;;5002006;28;19963;-70
2022/12/14 07:23:43;;;;;;;;;;;-0.90;99.90;;;;;;5003808;28;20570;-70
2022/12/14 07:26:11;;;;;;;;;;;-0.90;99.90;;;;;;5004185;28;20492;-70
2022/12/14 07:28:38;;;;;;;;;;;-0.90;99.90;;;;;;5002945;28;20049;-70
2022/12/14 07:31:15;;;;;;;;;;;-0.90;99.90;;;;;;5003358;28;19932;-70
2022/12/14 07:33:44;;;;;;;;;;;-0.90;99.90;;;;;;4987251;28;19951;-70
2022/12/14 07:36:12;;;;;;;;;;;-0.90;99.90;;;;;;5004043;28;19924;-70
2022/12/14 07:38:39;;;;;;;;;;;-0.90;99.90;;;;;;5009004;28;20161;-70
2022/12/14 07:41:25;;;;;;;;;;;-0.90;99.90;;;;;;5005407;28;20003;-70
2022/12/14 07:43:53;;;;;;;;;;;-0.90;99.90;;;;;;5003130;28;19992;-69
2022/12/14 07:46:22;;;;;;;;;;;-0.80;99.90;;;;;;5005300;28;20057;-69
2022/12/14 07:48:50;;;;;;;;;;;-0.80;99.90;;;;;;5007532;28;19925;-69
2022/12/14 07:51:18;;;;;;;;;;;-0.80;99.90;;;;;;5003689;28;20142;-69
2022/12/14 07:53:44;;;;;;;;;;;-0.80;99.90;;;;;;5001889;28;20008;-69
2022/12/14 07:56:22;;;;;;;;;;;-0.80;99.90;;;;;;5003507;28;20409;-69
2022/12/14 07:58:49;;;;;;;;;;;-0.70;99.90;;;;;;5001301;28;20222;-69
2022/12/14 08:01:26;;;;;;;;;;;-0.70;99.90;;;;;;5003037;28;20217;-69
2022/12/14 08:03:54;;;;;;;;;;;-0.70;99.90;;;;;;5002900;28;19929;-68
2022/12/14 08:06:22;;;;;;;;;;;-0.70;99.90;;;;;;4999397;28;19948;-69
2022/12/14 08:08:48;;;;;;;;;;;-0.60;99.90;;;;;;5003868;28;19932;-68
2022/12/14 08:11:15;;;;;;;;;;;-0.60;99.90;;;;;;5003410;28;19960;-68
2022/12/14 08:13:42;;;;;;;;;;;-0.50;99.90;;;;;;5004575;28;20311;-67
2022/12/14 08:16:10;;;;;;;;;;;-0.50;99.90;;;;;;5003908;28;19999;-68
2022/12/14 08:18:37;;;;;;;;;;;-0.50;99.90;;;;;;5002961;28;19929;-69
2022/12/14 08:21:05;;;;;;;;;;;-0.50;99.90;;;;;;5004576;28;19924;-69
2022/12/14 08:23:57;;;;;;;70.35;32.28;;;-0.50;99.90;;;;;;5067882;27;20129;-55
2022/12/14 08:26:25;;;;;;;63.20;35.00;;;-0.50;99.90;;;;;;5041338;27;20053;-52
2022/12/14 08:29:01;;;;;;;56.10;31.30;;;-0.40;99.90;;;;;;5029386;28;20064;-55
2022/12/14 08:31:28;;;;;;;66.88;37.20;;;-0.40;99.90;;;;;;5033015;28;20063;-54
2022/12/14 08:33:57;;;;;;;56.05;31.58;;;-0.40;99.90;;;;;;5029200;28;20537;-56
2022/12/14 08:36:29;;;;;;;77.40;36.53;;;-0.30;99.90;;;;;;5028230;28;20047;-52
2022/12/14 08:38:58;;;;;;;68.13;34.67;;;-0.30;99.90;;;;;;5028872;28;20352;-52
2022/12/14 08:41:26;;;;;;;62.45;35.10;;;-0.30;99.90;;;;;;5026804;28;20126;-52
2022/12/14 08:43:58;;;;;;;72.55;38.00;;;-0.20;99.90;;;;;;5027053;28;20533;-54
2022/12/14 08:46:26;;;;;;;66.35;33.45;;;-0.20;99.90;;;;;;5030414;28;20143;-53
2022/12/14 08:48:54;;;;;;;63.95;33.55;;;-0.10;99.90;;;;;;5030389;28;20102;-51
2022/12/14 08:51:22;;;;;;;64.30;35.35;;;-0.10;99.90;;;;;;5027436;28;20133;-51
2022/12/14 08:53:49;;;;;;;62.97;32.90;;;-0.10;99.90;;;;;;5025851;28;20578;-52
2022/12/14 08:56:19;;;;;;;58.47;32.60;;;-0.10;99.90;;;;;;5030629;28;20120;-52
2022/12/14 08:58:46;;;;;;;65.80;34.45;;;-0.10;99.90;;;;;;5029432;28;20065;-54
2022/12/14 09:01:19;;;;;;;70.57;35.45;;;0.00;99.90;;;;;;5026935;28;20046;-53
2022/12/14 09:03:47;;;;;;;75.05;35.60;;;0.00;99.90;;;;;;5028486;28;20057;-52
2022/12/14 09:06:19;;;;;;;68.82;34.75;;;0.00;99.90;;;;;;5027524;28;20098;-55
2022/12/14 09:08:46;;;;;;;67.85;34.58;;;0.10;99.90;;;;;;5028194;28;20138;-55
2022/12/14 09:11:17;;;;;;;63.83;36.15;;;0.10;99.90;;;;;;5028668;28;20046;-54
2022/12/14 09:13:45;;;;;;;69.65;34.88;;;0.10;99.90;;;;;;5028246;28;20064;-55
2022/12/14 09:16:15;;;;;;;75.55;36.55;;;0.20;99.90;;;;;;5030051;28;20704;-53
2022/12/14 09:18:42;;;;;;;75.70;38.20;;;0.20;99.90;;;;;;5027641;28;20575;-55
2022/12/14 09:21:09;;;;;;;81.43;40.10;;;0.20;99.90;;;;;;5031494;28;20451;-53
2022/12/14 09:23:36;;;;;;;100.60;40.95;;;0.20;99.90;;;;;;5029056;28;20048;-53
2022/12/14 09:26:07;;;;;;;74.10;37.90;;;0.20;99.90;;;;;;5028035;28;20139;-61
2022/12/14 09:28:36;;;;;;;81.13;39.63;;;0.20;99.90;;;;;;5030185;28;20459;-54
2022/12/14 09:31:06;;;;;;;102.35;40.63;;;0.30;99.90;;;;;;5030453;28;20256;-54
2022/12/14 09:33:33;;;;;;;89.97;40.45;;;0.30;99.90;;;;;;5026546;28;20045;-54
2022/12/14 09:36:05;;;;;;;85.28;37.67;;;0.20;99.90;;;;;;5015347;28;20803;-50
2022/12/14 09:38:34;;;;;;;82.20;38.25;;;0.30;99.90;;;;;;5012570;28;20151;-55
2022/12/14 09:41:04;;;;;;;94.10;42.40;;;0.30;99.90;;;;;;5014183;28;20046;-53
2022/12/14 09:43:41;;;;;;;89.00;40.55;;;0.30;99.90;;;;;;5014649;28;20046;-54
2022/12/14 09:46:38;;;;;;;68.07;36.90;;;0.30;99.90;;;;;;5014834;28;20104;-54
2022/12/14 09:49:24;;;;;;;59.33;34.00;;;0.40;99.90;;;;;;5014680;28;20176;-53
2022/12/14 09:51:54;;;;;;;78.40;37.22;;;0.40;99.90;;;;;;5023394;28;20068;-49
2022/12/14 09:54:31;;;;;;;83.53;41.65;;;0.40;99.90;;;;;;5018454;28;20442;-54
2022/12/14 09:57:18;;;;;;;82.18;36.53;;;0.40;99.90;;;;;;5031472;28;20037;-53
2022/12/14 09:59:44;;;;;;;66.07;34.67;;;0.50;99.90;;;;;;5016507;28;20037;-51
2022/12/14 10:02:30;;;;;;;;;;;0.50;99.90;;;;;;5015429;28;20530;-53
2022/12/14 10:05:23;;;;;;;76.03;37.63;;;0.50;99.90;;;;;;5015722;28;20394;-54
2022/12/14 10:07:56;;;;;;;74.53;37.72;;;0.50;99.90;;;;;;5013638;28;20111;-55
2022/12/14 10:10:43;;;;;;;68.97;35.40;;;0.50;99.90;;;;;;5010609;28;20055;-56
2022/12/14 10:13:27;;;;;;;70.83;36.93;;;0.50;99.90;;;;;;5031788;28;20411;-55
2022/12/14 10:16:17;;;;;;;80.13;39.70;;;0.50;99.90;;;;;;5014593;28;21309;-62
2022/12/14 10:19:11;;;;;;;66.47;35.95;;;0.50;99.90;;;;;;5012705;28;20047;-52
2022/12/14 10:21:50;;;;;;;60.88;34.00;;;0.60;99.90;;;;;;5016040;28;20123;-53
2022/12/14 10:24:21;;;;;;;64.68;36.65;;;0.60;99.90;;;;;;5013436;28;20593;-53
2022/12/14 10:26:53;;;;;;;58.38;34.60;;;0.60;99.90;;;;;;5012866;28;20451;-53
2022/12/14 10:29:31;;;;;;;59.28;33.95;;;0.60;99.90;;;;;;5014249;28;20785;-54
2022/12/14 10:32:20;;;;;;;69.78;35.25;;;0.70;99.90;;;;;;5015120;28;20041;-53
2022/12/14 10:34:47;;;;;;;45.75;24.58;;;0.70;99.90;;;;;;5017999;28;20045;-53
2022/12/14 10:37:31;;;;;;;34.38;19.83;;;0.80;99.90;;;;;;5014551;28;20318;-54
2022/12/14 10:40:19;;;;;;;29.40;16.77;;;0.90;99.90;;;;;;5014077;28;20462;-55
2022/12/14 10:43:20;;;;;;;30.00;17.27;;;1.00;99.90;;;;;;5012610;28;20515;-55
2022/12/14 10:45:55;;;;;;;24.73;15.38;;;1.10;99.90;;;;;;5010961;28;20053;-55
2022/12/14 10:48:41;;;;;;;25.58;14.98;;;1.20;99.90;;;;;;5015279;28;20161;-50
2022/12/14 10:51:40;;;;;;;29.52;17.58;;;1.30;99.90;;;;;;5012566;28;20294;-54
2022/12/14 10:54:16;;;;;;;28.92;16.02;;;1.40;99.90;;;;;;5012814;28;20076;-55
2022/12/14 10:56:44;;;;;;;29.20;17.17;;;1.50;99.90;;;;;;5015252;28;20056;-55
2022/12/14 10:59:25;;;;;;;34.47;17.90;;;1.60;99.90;;;;;;5011169;28;20056;-55
2022/12/14 11:01:59;;;;;;;31.48;17.15;;;1.70;99.90;;;;;;5013950;28;20076;-55
2022/12/14 11:04:35;;;;;;;27.60;16.15;;;1.80;99.90;;;;;;5013153;28;20499;-55
2022/12/14 11:07:06;;;;;;;26.60;15.48;;;2.10;99.90;;;;;;5012688;28;20040;-55
2022/12/14 11:09:33;;;;;;;23.35;13.88;;;2.40;99.90;;;;;;5010771;28;20434;-54
2022/12/14 11:12:06;;;;;;;19.70;13.30;;;2.60;99.90;;;;;;5012259;28;20045;-56
2022/12/14 11:14:36;;;;;;;20.95;11.63;;;2.80;99.90;;;;;;5013643;28;20375;-54
2022/12/14 11:17:04;;;;;;;23.25;12.65;;;3.00;99.90;;;;;;5013443;28;20251;-55
2022/12/14 11:19:31;;;;;;;25.65;12.52;;;3.10;99.90;;;;;;5010763;28;20607;-51
2022/12/14 11:22:13;;;;;;;16.48;10.43;;;3.20;99.90;;;;;;5015250;28;20049;-56
2022/12/14 11:24:50;;;;;;;17.75;9.80;;;3.30;99.90;;;;;;5010328;28;20104;-54
2022/12/14 11:27:19;;;;;;;15.45;10.00;;;3.40;99.90;;;;;;5011537;28;20041;-51
2022/12/14 11:29:49;;;;;;;16.55;10.07;;;3.50;99.90;;;;;;5011820;28;20048;-52
2022/12/14 11:32:23;;;;;;;26.15;12.10;;;3.70;99.90;;;;;;5011897;28;20403;-56
2022/12/14 11:34:56;;;;;;;18.98;11.88;;;4.00;99.90;;;;;;5013552;28;20132;-55
2022/12/14 11:37:29;;;;;;;22.88;11.82;;;4.40;99.90;;;;;;5011744;28;20073;-51
2022/12/14 11:40:02;;;;;;;17.27;9.48;;;4.80;99.90;;;;;;5010779;28;20479;-55
2022/12/14 11:42:29;;;;;;;13.43;8.90;;;5.40;99.90;;;;;;5014236;28;20454;-54
2022/12/14 11:45:18;;;;;;;15.50;8.98;;;5.90;99.90;;;;;;5013065;28;20072;-52
2022/12/14 11:47:45;;;;;;;10.75;7.57;;;6.50;99.90;;;;;;5010203;28;20134;-50
2022/12/14 11:50:24;;;;;;;9.38;6.63;;;7.10;99.90;;;;;;5011510;28;20625;-53
2022/12/14 11:53:02;;;;;;;13.80;6.68;;;7.70;99.90;;;;;;5025827;28;20232;-51
2022/12/14 11:55:39;;;;;;;9.10;5.43;;;8.30;99.90;;;;;;5025670;28;20179;-52
2022/12/14 11:58:19;;;;;;;10.23;6.35;;;8.70;99.90;;;;;;5028483;28;20080;-53
2022/12/14 12:00:57;;;;;;;10.82;6.07;;;9.00;99.90;;;;;;5011260;28;20061;-53
2022/12/14 12:03:32;;;;;;;9.65;5.75;;;9.00;99.90;;;;;;5011693;28;20132;-59
2022/12/14 12:06:09;;;;;;;8.07;5.28;;;8.80;99.90;;;;;;5010598;28;20180;-57
2022/12/14 12:08:39;;;;;;;8.32;5.43;;;8.60;99.90;;;;;;5010365;28;20037;-55
2022/12/14 12:11:18;;;;;;;8.80;5.00;;;8.20;99.90;;;;;;5010877;28;20169;-53
2022/12/14 12:13:49;;;;;;;6.22;4.88;;;7.80;99.90;;;;;;5017672;28;20045;-56
2022/12/14 12:16:20;;;;;;;5.97;4.45;;;7.50;99.90;;;;;;5011580;28;20045;-56
2022/12/14 12:18:50;;;;;;;6.97;3.67;;;7.10;99.90;;;;;;5012933;28;20053;-54
2022/12/14 12:21:31;;;;;;;5.57;4.13;;;6.70;99.90;;;;;;5019363;28;20425;-55
2022/12/14 12:24:23;;;;;;;4.75;3.00;;;6.40;99.90;;;;;;5012167;28;20037;-54
2022/12/14 12:26:56;;;;;;;5.60;3.75;;;6.10;99.90;;;;;;5011210;28;20234;-55
2022/12/14 12:29:46;;;;;;;5.95;3.60;;;5.80;99.90;;;;;;5013373;28;20045;-55
2022/12/14 12:32:18;;;;;;;6.60;3.75;;;5.60;99.90;;;;;;5026487;28;20418;-54
2022/12/14 12:34:48;;;;;;;7.32;3.55;;;5.30;99.90;;;;;;5010693;28;20060;-49
2022/12/14 12:37:28;;;;;;;4.95;3.72;;;5.20;99.90;;;;;;5012145;28;20052;-56
2022/12/14 12:40:01;;;;;;;5.93;3.83;;;5.10;99.90;;;;;;5009079;28;20127;-55
2022/12/14 12:43:09;;;;;;;7.22;4.03;;;5.00;99.90;;;;;;5013374;28;20049;-54
2022/12/14 12:45:44;;;;;;;14.73;7.18;;;5.00;99.90;;;;;;4999962;28;20061;-54
2022/12/14 12:48:33;;;;;;;41.45;20.83;;;4.90;99.90;;;;;;5011309;28;20601;-55
2022/12/14 12:51:06;;;;;;;49.22;25.92;;;4.80;99.90;;;;;;5011576;28;20063;-55
2022/12/14 12:53:44;;;;;;;48.35;26.17;;;4.70;99.90;;;;;;5009884;28;20507;-56
2022/12/14 12:56:16;;;;;;;38.30;25.23;;;4.60;99.90;;;;;;5011914;28;20423;-57
2022/12/14 12:58:44;;;;;;;48.85;30.40;;;4.40;99.90;;;;;;5009628;28;20421;-56
2022/12/14 13:01:21;;;;;;;39.00;26.15;;;4.30;99.90;;;;;;5011965;28;20507;-56
2022/12/14 13:03:51;;;;;;;44.85;28.23;;;4.10;99.90;;;;;;5011294;28;20503;-54
2022/12/14 13:06:28;;;;;;;52.70;29.58;;;4.00;99.90;;;;;;5011183;28;20134;-53
2022/12/14 13:09:05;;;;;;;46.85;30.10;;;3.80;99.90;;;;;;5009713;28;20955;-57
2022/12/14 13:11:37;;;;;;;46.83;26.05;;;3.70;99.90;;;;;;5012015;28;20427;-56
2022/12/14 13:14:26;;;;;;;51.38;29.05;;;3.60;99.90;;;;;;5013805;28;20116;-57
2022/12/14 13:16:54;;;;;;;44.83;27.17;;;3.50;99.90;;;;;;5015673;28;20099;-54
2022/12/14 13:19:44;;;;;;;37.97;26.27;;;3.40;99.90;;;;;;5032522;28;20308;-55
2022/12/14 13:22:27;;;;;;;44.28;26.77;;;3.40;99.90;;;;;;5013606;28;20048;-54
2022/12/14 13:24:57;;;;;;;49.60;28.50;;;3.40;99.90;;;;;;5012035;28;20820;-56
2022/12/14 13:27:32;;;;;;;49.58;29.33;;;3.30;99.90;;;;;;5013109;28;20442;-55
2022/12/14 13:30:21;;;;;;;51.50;30.05;;;3.20;99.90;;;;;;5012361;28;20786;-54
2022/12/14 13:33:26;;;;;;;45.72;30.77;;;3.10;99.90;;;;;;5014604;28;20048;-53
2022/12/14 13:36:17;;;;;;;43.90;26.40;;;2.90;99.90;;;;;;5014344;28;20059;-51